Time;durP1;ratioP1;P1;durP2;ratioP2;P2;SDS_P1;SDS_P2;PMS_P1;PMS_P2;Temp;Humidity;BMP_temperature;BMP_pressure;BME280_temperature;BME280_humidity;BME280_pressure;Samples;Min_cycle;Max_cycle;Signal;HPM_P1;HPM_P2
2023/10/12 00:02:13;;;;;;;14.15;5.80;;;;;;;17.81;61.09;98066.22;5054304;28;20056;-70
2023/10/12 00:07:15;;;;;;;14.90;6.65;;;;;;;17.79;61.11;98062.97;5072525;28;20126;-71
2023/10/12 00:09:47;;;;;;;13.80;5.55;;;;;;;17.66;61.36;98047.38;5071351;28;20116;-71
2023/10/12 00:12:14;;;;;;;13.48;5.47;;;;;;;17.69;61.48;98049.50;5052228;28;20072;-71
2023/10/12 00:14:41;;;;;;;9.75;5.68;;;;;;;17.63;61.34;98047.97;5068525;28;20073;-71
2023/10/12 00:17:06;;;;;;;10.95;5.05;;;;;;;17.60;61.33;98037.63;5072912;28;20028;-70
2023/10/12 00:19:32;;;;;;;12.15;5.75;;;;;;;17.64;61.41;98046.84;5072621;28;20377;-71
2023/10/12 00:22:01;;;;;;;10.75;5.40;;;;;;;17.61;61.32;98044.72;5051602;28;20157;-71
2023/10/12 00:24:27;;;;;;;11.23;5.57;;;;;;;17.66;61.27;98052.81;5069147;28;20127;-71
2023/10/12 00:26:53;;;;;;;13.88;5.47;;;;;;;17.63;61.34;98047.13;5055760;28;20037;-71
2023/10/12 00:29:19;;;;;;;15.25;5.35;;;;;;;17.52;61.29;98030.16;5038241;28;20028;-71
2023/10/12 00:31:47;;;;;;;13.70;5.70;;;;;;;17.53;61.21;98036.38;5043733;28;20504;-70
2023/10/12 00:34:14;;;;;;;12.43;5.18;;;;;;;17.60;61.23;98048.53;5054569;28;20043;-70
2023/10/12 00:36:40;;;;;;;12.82;5.80;;;;;;;17.52;61.55;98030.16;5026357;28;20124;-70
2023/10/12 00:39:10;;;;;;;12.65;5.47;;;;;;;17.52;61.51;98035.59;5037598;28;20066;-70
2023/10/12 00:41:44;;;;;;;11.38;5.50;;;;;;;17.45;61.61;98028.84;5051135;28;20032;-71
2023/10/12 00:44:12;;;;;;;11.55;5.78;;;;;;;17.46;61.49;98028.53;5063054;28;20087;-71
2023/10/12 00:49:22;;;;;;;15.90;5.80;;;;;;;17.45;61.70;98035.09;5044494;28;20064;-68
2023/10/12 00:51:52;;;;;;;19.00;5.50;;;;;;;17.46;61.50;98020.38;5048885;28;20020;-72
2023/10/12 00:57:03;;;;;;;10.98;5.07;;;;;;;17.41;61.64;98012.28;5053708;28;20119;-71
2023/10/12 00:59:38;;;;;;;10.25;5.40;;;;;;;17.47;61.46;98015.75;5071590;28;20028;-70
2023/10/12 01:02:15;;;;;;;12.35;6.18;;;;;;;17.36;61.76;98001.47;5041873;28;20040;-71
2023/10/12 01:04:46;;;;;;;11.68;5.50;;;;;;;17.35;62.00;98007.19;5053397;28;20044;-71
2023/10/12 01:07:18;;;;;;;12.95;5.38;;;;;;;17.42;62.37;98008.47;5037706;28;20033;-72
2023/10/12 01:09:45;;;;;;;14.70;6.40;;;;;;;17.29;62.05;97993.63;5070673;28;20377;-70
2023/10/12 01:12:14;;;;;;;14.15;5.57;;;;;;;17.36;62.06;98009.63;5050295;28;20024;-70
2023/10/12 01:14:48;;;;;;;17.75;5.85;;;;;;;17.29;62.26;97992.84;5052202;28;20455;-69
2023/10/12 01:17:24;;;;;;;11.40;5.68;;;;;;;17.38;62.22;98015.59;5054063;28;20036;-72
2023/10/12 01:19:51;;;;;;;13.20;5.65;;;;;;;17.38;62.26;98015.59;5039982;28;20025;-70
2023/10/12 01:22:25;;;;;;;11.25;5.40;;;;;;;17.37;62.27;98011.25;5071524;28;20024;-70
2023/10/12 01:27:21;;;;;;;14.27;5.72;;;;;;;17.31;62.70;98009.69;5053661;28;20039;-72
2023/10/12 01:29:50;;;;;;;12.25;6.05;;;;;;;17.23;62.63;97994.81;5034318;28;20454;-72
2023/10/12 01:34:51;;;;;;;12.77;5.55;;;;;;;17.17;62.87;97970.69;5050312;28;20530;-71
2023/10/12 01:37:23;;;;;;;13.13;6.43;;;;;;;17.10;62.98;97973.78;5051500;28;20032;-71
2023/10/12 01:39:56;;;;;;;12.32;5.82;;;;;;;17.17;63.07;97978.84;5065193;28;20025;-70
2023/10/12 01:42:26;;;;;;;9.80;5.10;;;;;;;17.19;63.34;97982.09;5054455;28;20044;-70
2023/10/12 01:44:53;;;;;;;15.23;6.45;;;;;;;17.04;63.54;97969.47;5053869;28;20040;-70
2023/10/12 01:47:18;;;;;;;14.70;5.85;;;;;;;17.10;63.67;97972.97;5036638;28;20024;-71
2023/10/12 01:49:48;;;;;;;13.45;5.80;;;;;;;17.05;63.53;97964.84;5049620;28;20060;-70
2023/10/12 01:52:14;;;;;;;17.52;5.43;;;;;;;17.16;63.47;97985.38;5049781;28;20061;-70
2023/10/12 01:54:43;;;;;;;11.02;5.60;;;;;;;17.01;63.66;97961.09;5063672;28;20472;-70
2023/10/12 01:57:12;;;;;;;13.68;6.55;;;;;;;17.11;63.65;97980.00;5069644;28;20036;-71
2023/10/12 01:59:37;;;;;;;13.75;5.65;;;;;;;17.07;63.75;97962.66;5052593;28;20020;-70
2023/10/12 02:02:08;;;;;;;15.07;5.85;;;;;;;17.07;63.58;97968.91;5069458;28;20415;-70
2023/10/12 02:04:39;;;;;;;13.02;5.90;;;;;;;17.15;63.74;97978.34;5069568;28;20135;-71
2023/10/12 02:07:06;;;;;;;14.88;6.05;;;;;;;17.03;63.57;97953.47;5032939;28;20029;-72
2023/10/12 02:09:34;;;;;;;15.10;6.15;;;;;;;16.95;63.78;97948.66;5066427;28;20041;-71
2023/10/12 02:12:09;;;;;;;12.02;5.75;;;;;;;17.10;63.88;97967.50;5033258;28;20029;-71
2023/10/12 02:14:39;;;;;;;18.17;6.13;;;;;;;17.05;63.95;97970.28;5035323;28;20492;-73
2023/10/12 02:17:06;;;;;;;12.60;5.65;;;;;;;17.03;63.83;97967.06;5053297;28;20393;-71
2023/10/12 02:19:39;;;;;;;13.82;6.03;;;;;;;16.96;64.22;97961.16;5052345;28;20055;-72
2023/10/12 02:22:05;;;;;;;16.60;5.97;;;;;;;16.95;63.83;97954.09;5040228;28;20032;-71
2023/10/12 02:24:30;;;;;;;12.05;5.93;;;;;;;16.97;64.21;97969.03;5039884;28;20035;-71
2023/10/12 02:27:00;;;;;;;14.65;6.70;;;;;;;16.92;63.97;97952.75;5072994;28;20032;-71
2023/10/12 02:29:27;;;;;;;15.38;6.57;;;;;;;16.90;64.42;97963.13;5060627;28;20465;-71
2023/10/12 02:34:25;;;;;;;12.32;6.00;;;;;;;16.97;64.14;97973.66;5043528;28;20051;-72
2023/10/12 02:39:31;;;;;;;11.93;5.88;;;;;;;17.00;64.02;97982.06;5057924;28;20102;-72
2023/10/12 02:44:50;;;;;;;13.98;5.80;;;;;;;16.99;63.94;97982.34;5059282;28;20041;-73
2023/10/12 02:47:22;;;;;;;12.60;6.00;;;;;;;16.98;64.05;97984.25;5058001;28;20032;-73
2023/10/12 02:49:48;;;;;;;15.00;6.10;;;;;;;16.99;64.18;97987.81;5056880;28;20064;-72
2023/10/12 02:52:15;;;;;;;12.55;5.90;;;;;;;17.01;63.97;97996.47;5039838;28;20024;-72
2023/10/12 02:54:50;;;;;;;10.32;6.00;;;;;;;17.01;64.05;97986.38;5073247;28;20105;-72
2023/10/12 02:57:23;;;;;;;17.90;6.32;;;;;;;17.00;64.12;97992.13;5056230;28;20040;-71
2023/10/12 02:59:56;;;;;;;14.70;6.22;;;;;;;16.95;64.07;97989.47;5055880;28;20465;-72
2023/10/12 03:02:34;;;;;;;12.95;5.30;;;;;;;17.02;63.87;97998.06;5040768;28;20036;-70
2023/10/12 03:05:06;;;;;;;13.40;6.50;;;;;;;16.96;64.02;97988.38;5055865;28;20040;-75
2023/10/12 03:07:37;;;;;;;14.32;6.13;;;;;;;16.99;64.06;98004.13;5056309;28;20067;-75
2023/10/12 03:10:07;;;;;;;15.05;5.88;;;;;;;16.95;64.40;97997.63;5055724;28;20058;-74
2023/10/12 03:12:35;;;;;;;13.70;6.22;;;;;;;16.92;64.63;97992.78;5020653;28;20079;-74
2023/10/12 03:15:11;;;;;;;10.82;6.10;;;;;;;16.82;64.68;97987.44;5040551;28;20025;-74
2023/10/12 03:17:37;;;;;;;11.27;6.20;;;;;;;16.75;64.66;97986.97;5036226;28;20116;-75
2023/10/12 03:20:17;;;;;;;11.45;5.88;;;;;;;16.85;64.70;98008.63;5052494;28;20219;-73
2023/10/12 03:22:44;;;;;;;10.63;5.90;;;;;;;16.72;64.82;97976.66;5055887;28;20134;-72
2023/10/12 03:25:36;;;;;;;14.68;5.93;;;;;;;16.84;64.72;97996.13;5074038;28;20024;-73
2023/10/12 03:28:11;;;;;;;10.98;5.88;;;;;;;16.70;65.39;97992.47;5073882;28;20035;-72
2023/10/12 03:30:43;;;;;;;15.55;6.65;;;;;;;16.70;65.21;97973.44;5074196;28;20115;-72
2023/10/12 03:33:15;;;;;;;13.40;5.97;;;;;;;16.67;65.33;97982.97;5073762;28;20039;-73
2023/10/12 03:35:57;;;;;;;14.38;6.22;;;;;;;16.73;65.49;97983.75;5052836;28;20036;-72
2023/10/12 03:38:32;;;;;;;13.15;6.25;;;;;;;16.63;65.25;97962.09;5034164;28;20568;-74
2023/10/12 03:43:46;;;;;;;10.63;6.85;;;;;;;16.70;65.63;97989.75;5041510;28;20034;-71
2023/10/12 03:49:06;;;;;;;12.05;6.60;;;;;;;16.73;65.72;97994.63;5055543;28;20037;-74
2023/10/12 03:51:41;;;;;;;11.35;5.78;;;;;;;16.79;65.41;98004.34;5073248;28;20036;-72
2023/10/12 03:54:19;;;;;;;11.98;6.10;;;;;;;16.80;65.20;98005.97;5056767;28;20043;-69
2023/10/12 03:56:51;;;;;;;12.35;5.65;;;;;;;16.84;65.19;98009.72;5055099;28;20036;-71
2023/10/12 03:59:25;;;;;;;10.90;5.85;;;;;;;16.77;65.37;97995.66;5072359;28;20062;-71
2023/10/12 04:01:54;;;;;;;11.40;6.30;;;;;;;16.81;65.12;97993.97;5056237;28;20395;-73
2023/10/12 04:04:29;;;;;;;12.60;6.25;;;;;;;16.87;65.34;97995.56;5072737;28;20488;-73
2023/10/12 04:09:39;;;;;;;10.65;5.93;;;;;;;16.92;65.03;98006.38;5055153;28;20162;-73
2023/10/12 04:12:16;;;;;;;13.43;6.20;;;;;;;16.74;65.18;97971.75;5056693;28;20032;-72
2023/10/12 04:14:46;;;;;;;9.55;6.32;;;;;;;16.91;64.84;98007.47;5071705;28;20032;-71
2023/10/12 04:27:59;;;;;;;12.07;6.05;;;;;;;16.76;65.25;98004.91;5058290;28;20474;-73
2023/10/12 04:30:35;;;;;;;11.90;5.63;;;;;;;16.78;65.43;98008.16;5045856;28;20056;-69
2023/10/12 04:38:28;;;;;;;14.52;6.53;;;;;;;16.75;66.13;98003.31;5054783;28;20032;-72
2023/10/12 04:44:06;;;;;;;15.55;6.38;;;;;;;16.69;66.44;98004.44;4978257;28;20434;-73
2023/10/12 04:46:39;;;;;;;13.50;6.60;;;;;;;16.67;66.00;98006.63;4990163;28;20096;-73
2023/10/12 04:51:49;;;;;;;14.02;7.07;;;;;;;16.53;66.26;97996.44;5068496;28;20396;-73
2023/10/12 04:54:23;;;;;;;12.57;6.45;;;;;;;16.56;66.28;98023.06;5070674;28;20388;-73
2023/10/12 05:02:28;;;;;;;13.77;6.70;;;;;;;16.53;66.67;98023.63;5050901;28;20037;-72
2023/10/12 05:09:51;;;;;;;14.30;6.57;;;;;;;16.43;67.62;98039.19;5053116;28;20101;-74
2023/10/12 05:12:28;;;;;;;13.80;6.10;;;;;;;16.34;67.55;98039.00;5033876;28;20033;-71
2023/10/12 05:14:55;;;;;;;13.48;6.80;;;;;;;16.40;67.41;98050.66;5058027;28;20384;-70
2023/10/12 05:17:24;;;;;;;9.80;6.57;;;;;;;16.35;67.69;98054.22;5071293;28;20132;-73
2023/10/12 05:19:52;;;;;;;13.57;6.70;;;;;;;16.25;67.99;98048.03;5041753;28;20032;-72
2023/10/12 05:22:18;;;;;;;14.35;6.82;;;;;;;16.11;68.43;98045.16;5033690;28;20020;-73
2023/10/12 05:24:44;;;;;;;14.60;6.60;;;;;;;16.16;68.42;98060.63;5060187;28;20412;-72
2023/10/12 05:27:09;;;;;;;12.77;6.35;;;;;;;16.20;68.54;98056.22;5071321;28;20024;-73
2023/10/12 05:29:45;;;;;;;13.18;6.60;;;;;;;16.27;68.29;98073.84;5049713;28;20037;-73
2023/10/12 05:32:36;;;;;;;14.35;6.65;;;;;;;16.23;68.44;98067.38;5067568;28;20104;-76
2023/10/12 05:34:57;;;;;;;14.05;6.47;;;;;;;16.16;68.35;98055.19;5056315;28;20040;-74
2023/10/12 05:37:26;;;;;;;15.90;6.18;;;;;;;16.27;68.37;98073.03;5036956;28;20487;-75
2023/10/12 05:39:56;;;;;;;11.23;6.38;;;;;;;16.39;68.02;98087.88;5049809;28;20051;-75
2023/10/12 05:42:22;;;;;;;10.05;6.25;;;;;;;16.33;68.39;98083.59;5016573;28;20016;-75
2023/10/12 05:44:49;;;;;;;14.65;6.38;;;;;;;16.40;68.13;98094.97;5046604;28;20417;-75
2023/10/12 05:47:16;;;;;;;10.70;6.32;;;;;;;16.30;68.08;98073.28;5070949;28;20032;-75
2023/10/12 05:49:41;;;;;;;13.15;6.68;;;;;;;16.44;68.06;98098.72;5053276;28;20040;-75
2023/10/12 05:52:10;;;;;;;15.65;6.50;;;;;;;16.40;68.21;98094.16;5053095;28;20392;-74
2023/10/12 05:54:38;;;;;;;15.25;7.40;;;;;;;16.51;67.94;98110.13;5050315;28;20029;-75
2023/10/12 05:57:18;;;;;;;15.80;8.20;;;;;;;16.47;67.95;98100.88;5053024;28;20024;-75
2023/10/12 05:59:44;;;;;;;13.68;6.68;;;;;;;16.58;67.67;98118.75;5037328;28;20078;-75
2023/10/12 06:02:10;;;;;;;13.63;6.85;;;;;;;16.50;67.63;98100.28;5053969;28;20507;-75
2023/10/12 06:04:36;;;;;;;11.15;6.45;;;;;;;16.66;67.28;98113.81;5053343;28;20040;-74
2023/10/12 06:07:03;;;;;;;13.60;6.97;;;;;;;16.64;67.39;98107.84;5057071;28;20142;-75
2023/10/12 06:09:36;;;;;;;12.63;6.18;;;;;;;16.59;67.39;98097.81;5055743;28;20148;-73
2023/10/12 06:12:12;;;;;;;12.55;6.38;;;;;;;16.67;67.17;98094.47;5053939;28;20507;-76
2023/10/12 06:14:38;;;;;;;9.63;6.43;;;;;;;16.72;67.17;98102.59;5054993;28;20139;-73
2023/10/12 06:17:07;;;;;;;13.38;6.32;;;;;;;16.86;67.05;98124.50;5053566;28;20286;-74
2023/10/12 06:19:36;;;;;;;12.23;6.53;;;;;;;16.81;66.98;98106.31;5073101;28;20041;-73
2023/10/12 06:24:54;;;;;;;10.30;5.78;;;;;;;16.93;67.06;98149.44;5079253;28;20032;-74
2023/10/12 06:29:54;;;;;;;13.50;6.03;;;;;;;17.04;66.95;98148.25;5052645;28;20519;-74
2023/10/12 06:32:31;;;;;;;10.63;6.10;;;;;;;17.06;67.21;98156.97;5036904;28;20040;-75
2023/10/12 06:38:22;;;;;;;11.93;5.85;;;;;;;17.04;66.95;98149.06;5039895;28;20087;-73
2023/10/12 06:45:48;;;;;;;11.45;6.50;;;;;;;17.27;66.66;98177.41;5040074;28;20056;-74
2023/10/12 06:51:10;;;;;;;13.35;6.35;;;;;;;17.33;66.82;98159.94;5052825;28;20052;-75
2023/10/12 06:53:37;;;;;;;11.27;6.00;;;;;;;17.44;66.58;98169.63;5052336;28;20044;-75
2023/10/12 06:56:21;;;;;;;10.77;6.10;;;;;;;17.48;66.89;98164.41;5045318;28;20029;-74
2023/10/12 07:01:51;;;;;;;12.05;6.53;;;;;;;17.29;67.73;98145.28;5056009;28;20036;-75
2023/10/12 07:04:20;;;;;;;11.98;6.55;;;;;;;17.43;67.87;98173.44;5053160;28;20104;-74
2023/10/12 07:06:57;;;;;;;15.90;6.20;;;;;;;17.49;67.72;98180.44;5035568;28;20033;-75
2023/10/12 07:09:39;;;;;;;12.68;6.63;;;;;;;17.43;67.15;98189.78;5018911;28;20044;-74
2023/10/12 07:12:17;;;;;;;12.73;6.35;;;;;;;17.39;67.52;98188.72;5037250;28;20082;-74
2023/10/12 07:14:46;;;;;;;14.65;6.88;;;;;;;17.41;67.59;98197.41;5039511;28;20477;-74
2023/10/12 07:17:12;;;;;;;13.52;6.88;;;;;;;17.48;67.47;98214.22;5073621;28;20036;-74
2023/10/12 07:19:42;;;;;;;14.20;6.72;;;;;;;17.41;67.48;98221.91;5052221;28;20037;-74
2023/10/12 07:22:15;;;;;;;11.30;6.10;;;;;;;17.47;67.75;98256.19;5051213;28;20498;-74
2023/10/12 07:24:43;;;;;;;13.05;6.75;;;;;;;17.43;67.55;98238.81;5056860;28;20108;-74
2023/10/12 07:27:17;;;;;;;13.73;6.85;;;;;;;17.58;67.55;98235.13;5052366;28;20135;-74
2023/10/12 07:29:44;;;;;;;14.30;6.72;;;;;;;17.58;67.38;98208.69;5046411;28;20045;-76
2023/10/12 07:32:38;;;;;;;11.50;6.57;;;;;;;17.54;67.40;98199.50;5055884;28;20046;-73
2023/10/12 07:35:09;;;;;;;16.50;6.80;;;;;;;17.62;67.00;98193.41;5058280;28;20123;-74
2023/10/12 07:37:41;;;;;;;15.45;6.30;;;;;;;17.55;66.67;98160.25;5052016;28;20044;-74
2023/10/12 07:40:19;;;;;;;14.70;6.07;;;;;;;17.66;66.37;98178.13;5054133;28;20074;-74
2023/10/12 07:42:48;;;;;;;12.73;6.25;;;;;;;17.64;66.12;98180.28;5052485;28;20558;-76
2023/10/12 07:45:18;;;;;;;13.77;6.47;;;;;;;17.66;66.07;98194.47;5035730;28;20032;-75
2023/10/12 07:47:46;;;;;;;8.68;5.80;;;;;;;17.65;65.94;98181.94;5055280;28;20051;-75
2023/10/12 07:50:23;;;;;;;11.40;6.15;;;;;;;17.72;65.94;98197.91;5054984;28;20094;-75
2023/10/12 07:52:48;;;;;;;12.73;6.18;;;;;;;17.73;66.06;98208.56;5040861;28;20036;-77
2023/10/12 07:55:15;;;;;;;11.20;6.45;;;;;;;17.77;65.97;98201.41;5038538;28;20380;-75
2023/10/12 07:57:41;;;;;;;14.20;6.75;;;;;;;17.82;66.05;98200.53;5035085;28;20093;-75
2023/10/12 08:10:47;;;;;;;11.85;5.60;;;;;;;17.84;66.92;98261.00;5035783;28;20086;-76
2023/10/12 08:13:26;;;;;;;12.98;6.00;;;;;;;17.87;67.06;98265.88;5055938;28;20044;-75
2023/10/12 08:23:49;;;;;;;12.68;6.90;;;;;;;18.23;67.94;98225.34;5072019;28;20461;-74
2023/10/12 08:26:35;;;;;;;13.40;6.30;;;;;;;18.29;67.59;98232.38;5072081;28;20040;-75
2023/10/12 08:29:17;;;;;;;17.85;6.65;;;;;;;18.32;67.70;98245.44;5071653;28;20029;-75
2023/10/12 08:31:43;;;;;;;13.63;6.85;;;;;;;18.30;67.68;98242.16;5034322;28;20033;-74
2023/10/12 08:39:38;;;;;;;10.18;6.32;;;;;;;18.49;67.29;98262.13;5050532;28;20043;-75
2023/10/12 08:44:54;;;;;;;14.00;6.28;;;;;;;18.45;66.31;98258.34;5051095;28;20404;-75
2023/10/12 08:50:05;;;;;;;12.27;5.75;;;;;;;18.57;65.63;98258.75;5070083;28;20546;-75
2023/10/12 08:52:38;;;;;;;12.63;6.10;;;;;;;18.62;64.96;98277.78;5050453;28;20037;-75
2023/10/12 08:57:37;;;;;;;12.18;6.68;;;;;;;18.68;65.31;98260.22;5050505;28;20058;-75
2023/10/12 09:00:39;;;;;;;14.45;6.43;;;;;;;18.70;65.53;98274.38;5064896;28;20473;-75
2023/10/12 09:03:32;;;;;;;10.23;5.85;;;;;;;18.61;65.85;98262.50;5038038;28;20112;-74
2023/10/12 09:05:54;;;;;;;13.65;6.63;;;;;;;18.59;65.74;98262.00;5050240;28;20056;-75
2023/10/12 09:10:51;;;;;;;14.02;6.82;;;;;;;18.73;66.13;98273.78;5050496;28;20045;-75
2023/10/12 09:13:21;;;;;;;15.48;6.70;;;;;;;18.75;65.88;98270.75;5071693;28;20028;-75
2023/10/12 09:15:48;;;;;;;11.85;7.15;;;;;;;18.79;66.21;98256.22;5071263;28;20134;-76
2023/10/12 09:18:17;;;;;;;15.60;6.60;;;;;;;18.90;65.73;98267.81;5033170;28;20550;-75
2023/10/12 09:21:00;;;;;;;12.52;6.65;;;;;;;18.90;65.86;98270.53;5048078;28;20020;-76
2023/10/12 09:23:46;;;;;;;12.63;5.85;;;;;;;18.97;65.49;98277.25;5071516;28;20097;-75
2023/10/12 09:26:30;;;;;;;10.35;6.55;;;;;;;18.88;65.33;98265.38;5038994;28;20040;-75
2023/10/12 09:29:20;;;;;;;13.88;5.93;;;;;;;18.97;65.39;98269.06;5038715;28;20037;-74
2023/10/12 09:36:59;;;;;;;11.63;6.13;;;;;;;19.03;64.82;98245.22;5050601;28;20037;-75
2023/10/12 09:39:25;;;;;;;13.45;6.70;;;;;;;18.97;64.39;98246.41;5033009;28;20032;-75
2023/10/12 09:41:55;;;;;;;14.07;6.13;;;;;;;18.96;64.38;98242.06;5066620;28;20376;-75
2023/10/12 09:44:27;;;;;;;10.23;5.72;;;;;;;19.10;64.15;98245.66;5050015;28;20029;-75
2023/10/12 09:46:57;;;;;;;12.90;6.22;;;;;;;19.15;64.16;98230.00;5066721;28;20139;-75
2023/10/12 09:49:27;;;;;;;10.88;6.03;;;;;;;19.17;64.38;98222.31;5071213;28;20032;-75
2023/10/12 09:51:54;;;;;;;9.57;5.88;;;;;;;19.21;64.52;98228.78;5053808;28;20123;-75
2023/10/12 09:54:45;;;;;;;9.48;5.80;;;;;;;19.24;63.60;98244.59;5049990;28;20024;-71
2023/10/12 09:57:25;;;;;;;12.70;6.22;;;;;;;19.32;63.58;98249.34;5026983;28;20461;-72
2023/10/12 10:00:00;;;;;;;8.05;5.63;;;;;;;19.44;63.66;98248.13;5053461;28;20031;-71
2023/10/12 10:02:30;;;;;;;11.55;6.03;;;;;;;19.55;63.49;98249.53;5049442;28;20520;-73
2023/10/12 10:05:26;;;;;;;14.50;6.40;;;;;;;19.57;63.31;98244.59;5069298;28;20137;-73
2023/10/12 10:07:57;;;;;;;11.50;6.07;;;;;;;19.64;62.94;98245.00;5055512;28;20162;-75
2023/10/12 10:10:35;;;;;;;10.05;5.40;;;;;;;19.55;62.89;98241.34;5025165;28;20398;-75
2023/10/12 10:13:08;;;;;;;11.52;6.15;;;;;;;19.41;62.78;98251.44;5037379;28;20193;-74
2023/10/12 10:15:55;;;;;;;17.52;8.32;;;;;;;19.48;62.76;98251.84;5070710;28;20032;-74
2023/10/12 10:18:27;;;;;;;12.05;6.53;;;;;;;19.43;63.03;98244.56;5062729;28;20123;-74
2023/10/12 10:20:57;;;;;;;14.85;7.35;;;;;;;19.45;63.36;98252.44;5037423;28;20032;-75
2023/10/12 10:23:25;;;;;;;15.18;6.85;;;;;;;19.33;63.23;98259.19;5036201;28;20031;-75
2023/10/12 10:28:54;;;;;;;14.52;6.38;;;;;;;19.25;64.36;98269.97;5049382;28;20092;-74
2023/10/12 10:31:32;;;;;;;12.85;6.57;;;;;;;19.14;64.75;98258.41;5038228;28;20068;-74
2023/10/12 10:34:01;;;;;;;15.18;6.82;;;;;;;19.16;65.66;98277.25;5052804;28;20130;-74
2023/10/12 10:36:28;;;;;;;12.85;6.40;;;;;;;19.08;66.74;98269.72;5049829;28;20043;-74
2023/10/12 10:38:54;;;;;;;14.13;6.80;;;;;;;18.96;66.87;98256.53;5051101;28;20415;-75
2023/10/12 10:44:15;;;;;;;14.25;8.50;;;;;;;18.96;67.77;98267.44;5038801;28;20037;-74
2023/10/12 10:46:44;;;;;;;16.23;8.77;;;;;;;18.89;68.15;98256.06;5057503;28;20500;-75
2023/10/12 10:49:16;;;;;;;16.35;9.63;;;;;;;18.90;68.64;98267.81;5056143;28;20028;-74
2023/10/12 10:51:56;;;;;;;16.02;9.80;;;;;;;18.86;69.23;98258.56;5056183;28;20123;-72
2023/10/12 10:54:22;;;;;;;13.23;8.68;;;;;;;18.74;69.96;98250.84;5058009;28;20040;-74
2023/10/12 10:56:48;;;;;;;15.70;7.88;;;;;;;18.71;70.53;98259.63;5074069;28;20519;-74
2023/10/12 10:59:15;;;;;;;15.40;7.88;;;;;;;18.64;71.18;98242.81;5073760;28;20082;-76
2023/10/12 11:01:49;;;;;;;13.93;7.53;;;;;;;18.74;71.18;98245.38;5052444;28;20021;-74
2023/10/12 11:04:27;;;;;;;16.25;8.20;;;;;;;18.71;71.72;98246.00;5047838;28;20036;-74
2023/10/12 11:06:57;;;;;;;15.13;8.35;;;;;;;18.67;72.27;98236.75;5051181;28;20043;-74
2023/10/12 11:09:31;;;;;;;13.02;7.93;;;;;;;18.69;72.60;98231.84;5050269;28;20024;-74
2023/10/12 11:11:58;;;;;;;14.00;7.85;;;;;;;18.63;72.73;98224.81;5039943;28;20497;-74
2023/10/12 11:14:24;;;;;;;16.17;8.35;;;;;;;18.52;72.94;98223.34;5055513;28;20115;-74
2023/10/12 11:16:51;;;;;;;17.13;9.10;;;;;;;18.59;73.15;98223.78;5052217;28;20037;-74
2023/10/12 11:19:19;;;;;;;15.25;9.02;;;;;;;18.55;73.49;98225.50;5051429;28;20020;-74
2023/10/12 11:21:51;;;;;;;16.08;9.88;;;;;;;18.56;73.82;98227.09;5055974;28;20111;-74
2023/10/12 11:24:17;;;;;;;18.17;9.13;;;;;;;18.63;73.71;98235.72;5056092;28;20476;-74
2023/10/12 11:26:51;;;;;;;18.05;9.23;;;;;;;18.61;73.42;98251.59;5052155;28;20029;-74
2023/10/12 11:29:17;;;;;;;17.10;9.15;;;;;;;18.57;74.00;98242.38;5053353;28;20041;-74
2023/10/12 11:31:46;;;;;;;17.98;8.80;;;;;;;18.50;74.44;98236.47;5038866;28;20497;-75
2023/10/12 11:34:23;;;;;;;15.02;9.20;;;;;;;18.53;74.96;98239.41;5073298;28;20043;-74
2023/10/12 11:36:57;;;;;;;14.77;8.93;;;;;;;18.48;75.11;98227.78;5055574;28;20519;-74
2023/10/12 11:39:28;;;;;;;17.63;9.50;;;;;;;18.49;75.64;98229.38;5038635;28;20033;-74
2023/10/12 11:42:07;;;;;;;16.38;9.55;;;;;;;18.57;75.38;98242.38;5073257;28;20047;-71
2023/10/12 11:44:36;;;;;;;19.35;9.55;;;;;;;18.52;75.64;98240.53;5051980;28;20485;-74
2023/10/12 11:47:06;;;;;;;18.73;9.30;;;;;;;18.43;75.84;98225.09;5071702;28;20385;-75
2023/10/12 11:49:55;;;;;;;18.02;9.52;;;;;;;18.45;76.08;98233.78;5055273;28;20181;-76
2023/10/12 11:52:34;;;;;;;19.58;10.52;;;;;;;18.54;76.13;98249.22;5062130;28;20041;-74
2023/10/12 11:55:20;;;;;;;17.35;9.88;;;;;;;18.46;75.83;98247.16;5072489;28;20044;-73
2023/10/12 11:57:54;;;;;;;21.30;10.93;;;;;;;18.34;76.33;98227.66;5054531;28;20044;-74
2023/10/12 12:00:26;;;;;;;15.13;10.85;;;;;;;18.55;76.37;98250.84;5034711;28;20174;-74
2023/10/12 12:02:57;;;;;;;18.23;10.40;;;;;;;18.69;76.34;98250.94;5050308;28;20040;-74
2023/10/12 12:05:22;;;;;;;18.50;11.35;;;;;;;18.58;76.06;98227.63;5051588;28;20036;-74
2023/10/12 12:07:51;;;;;;;19.65;11.60;;;;;;;18.79;76.21;98250.75;5057761;28;20041;-74
2023/10/12 12:10:26;;;;;;;16.23;9.70;;;;;;;18.90;75.97;98248.72;5049308;28;20033;-74
2023/10/12 12:12:52;;;;;;;16.20;9.48;;;;;;;18.87;75.50;98247.38;5055416;28;20028;-74
2023/10/12 12:15:18;;;;;;;18.95;9.85;;;;;;;18.83;75.83;98240.91;5072318;28;20384;-74
2023/10/12 12:17:46;;;;;;;15.50;9.55;;;;;;;18.89;76.58;98256.06;5054229;28;20037;-74
2023/10/12 12:20:16;;;;;;;22.15;11.43;;;;;;;18.86;77.22;98251.19;5070305;28;20051;-74
2023/10/12 12:22:44;;;;;;;15.95;10.70;;;;;;;18.87;77.69;98247.38;5034406;28;20029;-74
2023/10/12 12:25:18;;;;;;;17.95;9.55;;;;;;;18.83;77.42;98232.72;5030246;28;20025;-74
2023/10/12 12:27:48;;;;;;;16.75;10.30;;;;;;;18.94;77.86;98245.09;5041836;28;20040;-74
2023/10/12 12:30:31;;;;;;;14.05;9.73;;;;;;;18.96;77.56;98234.69;5053890;28;20089;-75
2023/10/12 12:33:00;;;;;;;20.48;10.75;;;;;;;19.03;77.25;98234.28;5039481;28;20032;-76
2023/10/12 12:35:27;;;;;;;16.85;10.07;;;;;;;19.04;77.61;98233.19;5069872;28;20032;-76
2023/10/12 12:38:00;;;;;;;16.80;10.80;;;;;;;19.07;77.56;98247.03;5037441;28;20033;-76
2023/10/12 12:40:29;;;;;;;17.60;10.73;;;;;;;18.97;77.30;98236.31;5054186;28;20107;-76
2023/10/12 12:42:55;;;;;;;16.15;10.98;;;;;;;19.04;77.47;98242.19;5034172;28;20040;-76
2023/10/12 12:45:20;;;;;;;16.35;11.30;;;;;;;19.03;77.67;98243.31;5035291;28;20040;-76
2023/10/12 12:47:46;;;;;;;18.13;11.90;;;;;;;19.07;77.95;98236.13;5054028;28;20044;-75
2023/10/12 12:50:11;;;;;;;19.92;12.30;;;;;;;19.09;78.26;98238.59;5071245;28;20032;-75
2023/10/12 12:52:37;;;;;;;20.75;12.63;;;;;;;19.08;78.56;98237.75;5053616;28;20025;-76
2023/10/12 12:55:10;;;;;;;20.75;13.18;;;;;;;19.06;78.62;98245.44;5071617;28;20044;-76
2023/10/12 12:57:38;;;;;;;21.38;12.57;;;;;;;19.04;78.79;98228.53;5054742;28;20036;-76
2023/10/12 13:00:08;;;;;;;20.77;12.85;;;;;;;19.07;78.80;98217.03;5053848;28;20017;-74
2023/10/12 13:02:33;;;;;;;22.15;13.13;;;;;;;18.91;78.86;98204.72;5037214;28;20052;-74
2023/10/12 13:05:00;;;;;;;19.02;11.73;;;;;;;19.05;79.15;98234.81;5036602;28;20024;-76
2023/10/12 13:07:26;;;;;;;20.42;13.27;;;;;;;18.94;79.03;98217.78;5071394;28;20055;-75
2023/10/12 13:09:53;;;;;;;18.38;13.15;;;;;;;19.02;79.48;98238.94;5053251;28;20687;-76
2023/10/12 13:12:19;;;;;;;20.70;14.18;;;;;;;18.86;79.29;98218.47;5071462;28;20115;-76
2023/10/12 13:14:44;;;;;;;18.38;13.88;;;;;;;18.83;79.95;98229.16;5053533;28;20107;-75
2023/10/12 13:17:11;;;;;;;20.77;15.32;;;;;;;18.84;79.89;98228.88;5071065;28;20093;-76
2023/10/12 13:19:37;;;;;;;23.33;14.75;;;;;;;18.92;80.40;98236.38;5052770;28;20024;-76
2023/10/12 13:22:02;;;;;;;26.35;16.45;;;;;;;18.88;80.50;98224.41;5053465;28;20135;-73
2023/10/12 13:24:35;;;;;;;26.25;17.33;;;;;;;18.85;80.80;98222.31;5053316;28;20107;-71
2023/10/12 13:27:08;;;;;;;24.35;16.10;;;;;;;18.76;80.50;98223.28;5054259;28;20480;-73
2023/10/12 13:29:37;;;;;;;22.02;15.80;;;;;;;18.74;80.83;98231.75;5053082;28;20094;-74
2023/10/12 13:32:08;;;;;;;24.00;16.38;;;;;;;18.56;81.39;98208.81;5053142;28;20032;-74
2023/10/12 13:34:33;;;;;;;28.45;17.70;;;;;;;18.75;80.84;98233.38;5049176;28;20041;-75
2023/10/12 13:36:59;;;;;;;25.67;16.40;;;;;;;18.70;81.10;98228.00;5068209;28;20035;-75
2023/10/12 13:39:25;;;;;;;21.70;14.60;;;;;;;18.69;81.26;98222.84;5050406;28;20039;-75
2023/10/12 13:41:51;;;;;;;21.98;14.40;;;;;;;18.77;81.37;98231.16;5037483;28;20056;-74
2023/10/12 13:44:25;;;;;;;20.30;13.27;;;;;;;18.78;81.38;98235.50;5053621;28;20094;-73
2023/10/12 13:46:51;;;;;;;21.02;14.02;;;;;;;18.68;81.28;98211.09;5054473;28;20025;-75
2023/10/12 13:49:16;;;;;;;22.35;15.23;;;;;;;18.64;81.44;98199.16;5032269;28;20508;-74